sensor_id;sensor_type;location;lat;lon;timestamp;P1;durP1;ratioP1;P2;durP2;ratioP2
9138;SDS011;4604;48.616;9.548;2023-03-07T00:00:51;10.23;;;5.63;;
9138;SDS011;4604;48.616;9.548;2023-03-07T00:03:18;14.70;;;5.40;;
9138;SDS011;4604;48.616;9.548;2023-03-07T00:05:45;10.97;;;5.90;;
9138;SDS011;4604;48.616;9.548;2023-03-07T00:08:12;12.00;;;5.80;;
9138;SDS011;4604;48.616;9.548;2023-03-07T00:10:38;10.23;;;5.70;;
9138;SDS011;4604;48.616;9.548;2023-03-07T00:13:05;10.43;;;6.10;;
9138;SDS011;4604;48.616;9.548;2023-03-07T00:15:34;10.80;;;5.70;;
9138;SDS011;4604;48.616;9.548;2023-03-07T00:18:03;9.83;;;5.77;;
9138;SDS011;4604;48.616;9.548;2023-03-07T00:20:31;10.97;;;5.77;;
9138;SDS011;4604;48.616;9.548;2023-03-07T00:22:58;9.50;;;5.47;;
9138;SDS011;4604;48.616;9.548;2023-03-07T00:25:25;8.87;;;5.50;;
9138;SDS011;4604;48.616;9.548;2023-03-07T00:27:51;10.97;;;6.17;;
9138;SDS011;4604;48.616;9.548;2023-03-07T00:30:18;12.50;;;6.30;;
9138;SDS011;4604;48.616;9.548;2023-03-07T00:32:46;9.77;;;5.90;;
9138;SDS011;4604;48.616;9.548;2023-03-07T00:35:13;10.83;;;5.93;;
9138;SDS011;4604;48.616;9.548;2023-03-07T00:37:39;11.37;;;6.37;;
9138;SDS011;4604;48.616;9.548;2023-03-07T00:40:06;10.80;;;5.53;;
9138;SDS011;4604;48.616;9.548;2023-03-07T00:42:34;10.07;;;6.03;;
9138;SDS011;4604;48.616;9.548;2023-03-07T00:45:01;9.97;;;5.70;;
9138;SDS011;4604;48.616;9.548;2023-03-07T00:47:28;11.03;;;6.63;;
9138;SDS011;4604;48.616;9.548;2023-03-07T00:49:55;10.73;;;5.80;;
9138;SDS011;4604;48.616;9.548;2023-03-07T00:52:22;9.60;;;5.47;;
9138;SDS011;4604;48.616;9.548;2023-03-07T00:54:49;11.20;;;6.60;;
9138;SDS011;4604;48.616;9.548;2023-03-07T00:57:15;12.30;;;5.97;;
9138;SDS011;4604;48.616;9.548;2023-03-07T00:59:42;11.73;;;6.03;;
9138;SDS011;4604;48.616;9.548;2023-03-07T01:02:08;11.07;;;5.80;;
9138;SDS011;4604;48.616;9.548;2023-03-07T01:04:35;12.10;;;6.53;;
9138;SDS011;4604;48.616;9.548;2023-03-07T01:07:03;12.57;;;6.50;;
9138;SDS011;4604;48.616;9.548;2023-03-07T01:09:30;11.77;;;6.87;;
9138;SDS011;4604;48.616;9.548;2023-03-07T01:11:56;12.47;;;6.63;;
9138;SDS011;4604;48.616;9.548;2023-03-07T01:14:23;12.17;;;6.63;;
9138;SDS011;4604;48.616;9.548;2023-03-07T01:16:49;12.50;;;6.80;;
9138;SDS011;4604;48.616;9.548;2023-03-07T01:19:16;11.27;;;6.80;;
9138;SDS011;4604;48.616;9.548;2023-03-07T01:21:43;12.03;;;6.87;;
9138;SDS011;4604;48.616;9.548;2023-03-07T01:24:12;15.27;;;7.37;;
9138;SDS011;4604;48.616;9.548;2023-03-07T01:26:40;11.63;;;6.80;;
9138;SDS011;4604;48.616;9.548;2023-03-07T01:29:08;12.60;;;6.90;;
9138;SDS011;4604;48.616;9.548;2023-03-07T01:31:36;12.20;;;6.53;;
9138;SDS011;4604;48.616;9.548;2023-03-07T01:34:03;13.00;;;7.13;;
9138;SDS011;4604;48.616;9.548;2023-03-07T01:36:31;9.77;;;6.47;;
9138;SDS011;4604;48.616;9.548;2023-03-07T01:38:59;12.83;;;6.90;;
9138;SDS011;4604;48.616;9.548;2023-03-07T01:41:31;14.00;;;7.20;;
9138;SDS011;4604;48.616;9.548;2023-03-07T01:43:59;12.13;;;7.20;;
9138;SDS011;4604;48.616;9.548;2023-03-07T01:46:33;10.93;;;6.70;;
9138;SDS011;4604;48.616;9.548;2023-03-07T01:49:07;21.00;;;7.00;;
9138;SDS011;4604;48.616;9.548;2023-03-07T01:51:44;16.33;;;6.93;;
9138;SDS011;4604;48.616;9.548;2023-03-07T01:54:14;12.83;;;6.30;;
9138;SDS011;4604;48.616;9.548;2023-03-07T01:56:44;11.43;;;6.40;;
9138;SDS011;4604;48.616;9.548;2023-03-07T01:59:12;11.20;;;6.70;;
9138;SDS011;4604;48.616;9.548;2023-03-07T02:01:42;13.30;;;6.67;;
9138;SDS011;4604;48.616;9.548;2023-03-07T02:04:09;12.30;;;6.70;;
9138;SDS011;4604;48.616;9.548;2023-03-07T02:06:38;11.23;;;6.23;;
9138;SDS011;4604;48.616;9.548;2023-03-07T02:09:06;12.77;;;6.83;;
9138;SDS011;4604;48.616;9.548;2023-03-07T02:11:38;14.83;;;6.87;;
9138;SDS011;4604;48.616;9.548;2023-03-07T02:14:08;11.87;;;6.80;;
9138;SDS011;4604;48.616;9.548;2023-03-07T02:16:35;11.53;;;6.27;;
9138;SDS011;4604;48.616;9.548;2023-03-07T02:19:03;12.53;;;5.93;;
9138;SDS011;4604;48.616;9.548;2023-03-07T02:21:37;10.17;;;5.57;;
9138;SDS011;4604;48.616;9.548;2023-03-07T02:24:10;10.40;;;5.83;;
9138;SDS011;4604;48.616;9.548;2023-03-07T02:26:50;11.87;;;6.03;;
9138;SDS011;4604;48.616;9.548;2023-03-07T02:29:17;10.47;;;5.53;;
9138;SDS011;4604;48.616;9.548;2023-03-07T02:31:44;10.97;;;6.30;;
9138;SDS011;4604;48.616;9.548;2023-03-07T02:34:18;10.83;;;6.07;;
9138;SDS011;4604;48.616;9.548;2023-03-07T02:36:47;11.37;;;5.97;;
9138;SDS011;4604;48.616;9.548;2023-03-07T02:39:15;12.07;;;6.07;;
9138;SDS011;4604;48.616;9.548;2023-03-07T02:41:42;9.73;;;5.90;;
9138;SDS011;4604;48.616;9.548;2023-03-07T02:44:10;15.43;;;6.57;;
9138;SDS011;4604;48.616;9.548;2023-03-07T02:46:37;11.77;;;6.30;;
9138;SDS011;4604;48.616;9.548;2023-03-07T02:49:03;11.77;;;6.33;;
9138;SDS011;4604;48.616;9.548;2023-03-07T02:51:30;12.37;;;6.03;;
9138;SDS011;4604;48.616;9.548;2023-03-07T02:53:57;18.63;;;6.63;;
9138;SDS011;4604;48.616;9.548;2023-03-07T02:56:24;10.70;;;6.00;;
9138;SDS011;4604;48.616;9.548;2023-03-07T02:58:50;11.77;;;5.90;;
9138;SDS011;4604;48.616;9.548;2023-03-07T03:01:18;12.00;;;6.57;;
9138;SDS011;4604;48.616;9.548;2023-03-07T03:03:45;10.43;;;6.23;;
9138;SDS011;4604;48.616;9.548;2023-03-07T03:06:12;12.43;;;6.90;;
9138;SDS011;4604;48.616;9.548;2023-03-07T03:08:39;13.23;;;6.50;;
9138;SDS011;4604;48.616;9.548;2023-03-07T03:11:05;10.67;;;6.20;;
9138;SDS011;4604;48.616;9.548;2023-03-07T03:13:32;12.37;;;6.93;;
9138;SDS011;4604;48.616;9.548;2023-03-07T03:15:58;15.20;;;6.60;;
9138;SDS011;4604;48.616;9.548;2023-03-07T03:18:27;10.63;;;5.80;;
9138;SDS011;4604;48.616;9.548;2023-03-07T03:20:54;11.47;;;6.40;;
9138;SDS011;4604;48.616;9.548;2023-03-07T03:23:22;12.10;;;6.63;;
9138;SDS011;4604;48.616;9.548;2023-03-07T03:25:55;10.73;;;5.80;;
9138;SDS011;4604;48.616;9.548;2023-03-07T03:28:23;12.57;;;6.43;;
9138;SDS011;4604;48.616;9.548;2023-03-07T03:30:55;12.43;;;6.30;;
9138;SDS011;4604;48.616;9.548;2023-03-07T03:33:23;10.80;;;5.93;;
9138;SDS011;4604;48.616;9.548;2023-03-07T03:35:51;11.00;;;6.23;;
9138;SDS011;4604;48.616;9.548;2023-03-07T03:38:17;10.27;;;5.83;;
9138;SDS011;4604;48.616;9.548;2023-03-07T03:40:44;12.07;;;6.70;;
9138;SDS011;4604;48.616;9.548;2023-03-07T03:43:10;14.53;;;6.83;;
9138;SDS011;4604;48.616;9.548;2023-03-07T03:45:37;10.97;;;6.30;;
9138;SDS011;4604;48.616;9.548;2023-03-07T03:48:04;14.13;;;6.13;;
9138;SDS011;4604;48.616;9.548;2023-03-07T03:50:31;9.80;;;6.30;;
9138;SDS011;4604;48.616;9.548;2023-03-07T03:52:59;10.83;;;6.33;;
9138;SDS011;4604;48.616;9.548;2023-03-07T03:55:26;12.50;;;6.53;;
9138;SDS011;4604;48.616;9.548;2023-03-07T03:57:53;12.53;;;6.70;;
9138;SDS011;4604;48.616;9.548;2023-03-07T04:00:20;13.70;;;6.30;;
9138;SDS011;4604;48.616;9.548;2023-03-07T04:02:47;12.20;;;6.57;;
9138;SDS011;4604;48.616;9.548;2023-03-07T04:05:14;15.93;;;7.83;;
9138;SDS011;4604;48.616;9.548;2023-03-07T04:07:42;12.97;;;6.87;;
9138;SDS011;4604;48.616;9.548;2023-03-07T04:10:10;12.33;;;6.43;;
9138;SDS011;4604;48.616;9.548;2023-03-07T04:12:37;12.03;;;6.37;;
9138;SDS011;4604;48.616;9.548;2023-03-07T04:15:04;14.37;;;6.97;;
9138;SDS011;4604;48.616;9.548;2023-03-07T04:17:31;14.03;;;6.73;;
9138;SDS011;4604;48.616;9.548;2023-03-07T04:19:58;13.10;;;7.00;;
9138;SDS011;4604;48.616;9.548;2023-03-07T04:22:24;12.90;;;6.83;;
9138;SDS011;4604;48.616;9.548;2023-03-07T04:24:52;11.77;;;6.43;;
9138;SDS011;4604;48.616;9.548;2023-03-07T04:27:20;12.73;;;7.03;;
9138;SDS011;4604;48.616;9.548;2023-03-07T04:29:46;12.63;;;7.00;;
9138;SDS011;4604;48.616;9.548;2023-03-07T04:32:13;13.10;;;7.07;;
9138;SDS011;4604;48.616;9.548;2023-03-07T04:34:40;12.77;;;7.00;;
9138;SDS011;4604;48.616;9.548;2023-03-07T04:37:06;12.00;;;6.77;;
9138;SDS011;4604;48.616;9.548;2023-03-07T04:39:33;15.13;;;7.10;;
9138;SDS011;4604;48.616;9.548;2023-03-07T04:41:59;12.83;;;6.93;;
9138;SDS011;4604;48.616;9.548;2023-03-07T04:44:28;13.30;;;7.60;;
9138;SDS011;4604;48.616;9.548;2023-03-07T04:46:54;14.97;;;7.47;;
9138;SDS011;4604;48.616;9.548;2023-03-07T04:49:21;14.83;;;6.83;;
9138;SDS011;4604;48.616;9.548;2023-03-07T04:51:48;14.50;;;6.47;;
9138;SDS011;4604;48.616;9.548;2023-03-07T04:54:14;12.13;;;6.37;;
9138;SDS011;4604;48.616;9.548;2023-03-07T04:56:41;13.73;;;7.17;;
9138;SDS011;4604;48.616;9.548;2023-03-07T04:59:08;12.90;;;6.70;;
9138;SDS011;4604;48.616;9.548;2023-03-07T05:01:36;12.73;;;6.87;;
9138;SDS011;4604;48.616;9.548;2023-03-07T05:04:02;10.80;;;6.47;;
9138;SDS011;4604;48.616;9.548;2023-03-07T05:06:29;13.77;;;6.97;;
9138;SDS011;4604;48.616;9.548;2023-03-07T05:08:55;12.57;;;6.30;;
9138;SDS011;4604;48.616;9.548;2023-03-07T05:11:22;11.40;;;6.40;;
9138;SDS011;4604;48.616;9.548;2023-03-07T05:13:49;13.50;;;7.10;;
9138;SDS011;4604;48.616;9.548;2023-03-07T05:16:15;12.10;;;6.63;;
9138;SDS011;4604;48.616;9.548;2023-03-07T05:18:43;11.73;;;5.90;;
9138;SDS011;4604;48.616;9.548;2023-03-07T05:21:10;16.53;;;6.70;;
9138;SDS011;4604;48.616;9.548;2023-03-07T05:23:39;11.27;;;6.80;;
9138;SDS011;4604;48.616;9.548;2023-03-07T05:26:06;13.87;;;6.23;;
9138;SDS011;4604;48.616;9.548;2023-03-07T05:28:33;11.70;;;6.97;;
9138;SDS011;4604;48.616;9.548;2023-03-07T05:30:59;12.63;;;6.57;;
9138;SDS011;4604;48.616;9.548;2023-03-07T05:33:26;14.57;;;7.73;;
9138;SDS011;4604;48.616;9.548;2023-03-07T05:35:57;10.70;;;5.90;;
9138;SDS011;4604;48.616;9.548;2023-03-07T05:38:24;13.57;;;6.93;;
9138;SDS011;4604;48.616;9.548;2023-03-07T05:40:51;13.30;;;6.93;;
9138;SDS011;4604;48.616;9.548;2023-03-07T05:43:17;13.40;;;7.20;;
9138;SDS011;4604;48.616;9.548;2023-03-07T05:45:44;12.20;;;6.33;;
9138;SDS011;4604;48.616;9.548;2023-03-07T05:48:11;13.10;;;6.77;;
9138;SDS011;4604;48.616;9.548;2023-03-07T05:50:37;10.43;;;6.00;;
9138;SDS011;4604;48.616;9.548;2023-03-07T05:53:07;11.93;;;6.30;;
9138;SDS011;4604;48.616;9.548;2023-03-07T05:55:34;11.47;;;6.40;;
9138;SDS011;4604;48.616;9.548;2023-03-07T05:58:00;10.93;;;6.40;;
9138;SDS011;4604;48.616;9.548;2023-03-07T06:00:27;15.10;;;7.00;;
9138;SDS011;4604;48.616;9.548;2023-03-07T06:02:54;10.77;;;6.10;;
9138;SDS011;4604;48.616;9.548;2023-03-07T06:05:20;17.00;;;7.27;;
9138;SDS011;4604;48.616;9.548;2023-03-07T06:07:47;12.57;;;6.63;;
9138;SDS011;4604;48.616;9.548;2023-03-07T06:10:16;10.80;;;6.43;;
9138;SDS011;4604;48.616;9.548;2023-03-07T06:12:43;11.90;;;6.23;;
9138;SDS011;4604;48.616;9.548;2023-03-07T06:15:10;11.50;;;6.50;;
9138;SDS011;4604;48.616;9.548;2023-03-07T06:17:37;14.33;;;6.70;;
9138;SDS011;4604;48.616;9.548;2023-03-07T06:20:04;10.07;;;6.23;;
9138;SDS011;4604;48.616;9.548;2023-03-07T06:22:31;13.50;;;7.17;;
9138;SDS011;4604;48.616;9.548;2023-03-07T06:27:31;11.27;;;6.50;;
9138;SDS011;4604;48.616;9.548;2023-03-07T06:30:04;12.07;;;6.00;;
9138;SDS011;4604;48.616;9.548;2023-03-07T06:32:32;10.27;;;5.70;;
9138;SDS011;4604;48.616;9.548;2023-03-07T06:35:02;13.30;;;7.03;;
9138;SDS011;4604;48.616;9.548;2023-03-07T06:37:31;14.40;;;7.90;;
9138;SDS011;4604;48.616;9.548;2023-03-07T06:40:02;13.40;;;7.90;;
9138;SDS011;4604;48.616;9.548;2023-03-07T06:42:31;13.40;;;7.13;;
9138;SDS011;4604;48.616;9.548;2023-03-07T06:45:01;11.50;;;6.73;;
9138;SDS011;4604;48.616;9.548;2023-03-07T06:47:29;11.27;;;6.67;;
9138;SDS011;4604;48.616;9.548;2023-03-07T06:49:56;10.80;;;6.43;;
9138;SDS011;4604;48.616;9.548;2023-03-07T06:52:30;18.00;;;7.63;;
9138;SDS011;4604;48.616;9.548;2023-03-07T06:54:56;12.47;;;6.60;;
9138;SDS011;4604;48.616;9.548;2023-03-07T06:57:32;9.57;;;6.40;;
9138;SDS011;4604;48.616;9.548;2023-03-07T06:59:59;11.30;;;6.80;;
9138;SDS011;4604;48.616;9.548;2023-03-07T07:02:29;9.27;;;6.27;;
9138;SDS011;4604;48.616;9.548;2023-03-07T07:05:10;10.07;;;5.70;;
9138;SDS011;4604;48.616;9.548;2023-03-07T07:07:39;9.70;;;5.80;;
9138;SDS011;4604;48.616;9.548;2023-03-07T07:10:11;10.83;;;5.93;;
9138;SDS011;4604;48.616;9.548;2023-03-07T07:12:45;10.70;;;6.30;;
9138;SDS011;4604;48.616;9.548;2023-03-07T07:15:12;9.73;;;5.63;;
9138;SDS011;4604;48.616;9.548;2023-03-07T07:17:38;10.20;;;6.07;;
9138;SDS011;4604;48.616;9.548;2023-03-07T07:20:09;10.30;;;5.90;;
9138;SDS011;4604;48.616;9.548;2023-03-07T07:22:40;10.80;;;6.17;;
9138;SDS011;4604;48.616;9.548;2023-03-07T07:25:10;9.63;;;5.57;;
9138;SDS011;4604;48.616;9.548;2023-03-07T07:27:37;9.47;;;5.40;;
9138;SDS011;4604;48.616;9.548;2023-03-07T07:30:06;10.40;;;6.07;;
9138;SDS011;4604;48.616;9.548;2023-03-07T07:32:33;9.83;;;5.87;;
9138;SDS011;4604;48.616;9.548;2023-03-07T07:35:00;9.80;;;6.17;;
9138;SDS011;4604;48.616;9.548;2023-03-07T07:37:26;11.73;;;5.87;;
9138;SDS011;4604;48.616;9.548;2023-03-07T07:39:53;11.57;;;5.60;;
9138;SDS011;4604;48.616;9.548;2023-03-07T07:42:20;9.73;;;5.67;;
9138;SDS011;4604;48.616;9.548;2023-03-07T07:44:46;9.50;;;5.87;;
9138;SDS011;4604;48.616;9.548;2023-03-07T07:47:14;8.70;;;5.20;;
9138;SDS011;4604;48.616;9.548;2023-03-07T07:49:41;10.53;;;6.00;;
9138;SDS011;4604;48.616;9.548;2023-03-07T07:52:07;9.60;;;5.47;;
9138;SDS011;4604;48.616;9.548;2023-03-07T07:54:34;11.50;;;5.90;;
9138;SDS011;4604;48.616;9.548;2023-03-07T07:57:01;9.77;;;5.60;;
9138;SDS011;4604;48.616;9.548;2023-03-07T07:59:27;8.33;;;5.00;;
9138;SDS011;4604;48.616;9.548;2023-03-07T08:01:55;10.20;;;5.63;;
9138;SDS011;4604;48.616;9.548;2023-03-07T08:04:23;8.43;;;5.17;;
9138;SDS011;4604;48.616;9.548;2023-03-07T08:06:50;8.50;;;4.80;;
9138;SDS011;4604;48.616;9.548;2023-03-07T08:09:17;9.03;;;5.50;;
9138;SDS011;4604;48.616;9.548;2023-03-07T08:11:44;13.10;;;5.67;;
9138;SDS011;4604;48.616;9.548;2023-03-07T08:14:10;11.17;;;5.53;;
9138;SDS011;4604;48.616;9.548;2023-03-07T08:16:37;9.57;;;5.60;;
9138;SDS011;4604;48.616;9.548;2023-03-07T08:19:04;10.80;;;5.50;;
9138;SDS011;4604;48.616;9.548;2023-03-07T08:21:32;10.23;;;6.17;;
9138;SDS011;4604;48.616;9.548;2023-03-07T08:23:59;12.07;;;5.90;;
9138;SDS011;4604;48.616;9.548;2023-03-07T08:26:26;12.00;;;6.00;;
9138;SDS011;4604;48.616;9.548;2023-03-07T08:28:53;8.73;;;5.80;;
9138;SDS011;4604;48.616;9.548;2023-03-07T08:31:20;16.07;;;5.43;;
9138;SDS011;4604;48.616;9.548;2023-03-07T08:33:48;10.97;;;5.53;;
9138;SDS011;4604;48.616;9.548;2023-03-07T08:36:16;10.90;;;5.50;;
9138;SDS011;4604;48.616;9.548;2023-03-07T08:38:46;9.87;;;5.37;;
9138;SDS011;4604;48.616;9.548;2023-03-07T08:41:14;9.80;;;5.57;;
9138;SDS011;4604;48.616;9.548;2023-03-07T08:43:41;12.27;;;6.00;;
9138;SDS011;4604;48.616;9.548;2023-03-07T08:46:08;8.57;;;5.37;;
9138;SDS011;4604;48.616;9.548;2023-03-07T08:48:34;8.17;;;4.93;;
9138;SDS011;4604;48.616;9.548;2023-03-07T08:51:04;9.47;;;5.20;;
9138;SDS011;4604;48.616;9.548;2023-03-07T08:53:33;12.60;;;6.17;;
9138;SDS011;4604;48.616;9.548;2023-03-07T08:56:04;10.93;;;5.27;;
9138;SDS011;4604;48.616;9.548;2023-03-07T08:58:31;10.53;;;6.07;;
9138;SDS011;4604;48.616;9.548;2023-03-07T09:00:57;14.67;;;7.33;;
9138;SDS011;4604;48.616;9.548;2023-03-07T09:03:24;11.27;;;5.83;;
9138;SDS011;4604;48.616;9.548;2023-03-07T09:05:51;15.73;;;7.33;;
9138;SDS011;4604;48.616;9.548;2023-03-07T09:08:17;9.63;;;5.53;;
9138;SDS011;4604;48.616;9.548;2023-03-07T09:10:44;12.67;;;5.60;;
9138;SDS011;4604;48.616;9.548;2023-03-07T09:13:12;8.93;;;5.40;;
9138;SDS011;4604;48.616;9.548;2023-03-07T09:15:39;7.00;;;4.63;;
9138;SDS011;4604;48.616;9.548;2023-03-07T09:18:06;8.67;;;5.00;;
9138;SDS011;4604;48.616;9.548;2023-03-07T09:20:33;10.83;;;5.83;;
9138;SDS011;4604;48.616;9.548;2023-03-07T09:22:59;13.03;;;7.53;;
9138;SDS011;4604;48.616;9.548;2023-03-07T09:25:26;10.73;;;5.77;;
9138;SDS011;4604;48.616;9.548;2023-03-07T09:27:52;11.03;;;5.80;;
9138;SDS011;4604;48.616;9.548;2023-03-07T09:30:21;10.13;;;5.33;;
9138;SDS011;4604;48.616;9.548;2023-03-07T09:32:49;8.97;;;5.27;;
9138;SDS011;4604;48.616;9.548;2023-03-07T09:35:16;9.00;;;5.37;;
9138;SDS011;4604;48.616;9.548;2023-03-07T09:37:43;9.10;;;5.30;;
9138;SDS011;4604;48.616;9.548;2023-03-07T09:40:10;10.73;;;5.70;;
9138;SDS011;4604;48.616;9.548;2023-03-07T09:42:45;9.30;;;4.77;;
9138;SDS011;4604;48.616;9.548;2023-03-07T09:45:22;9.37;;;5.30;;
9138;SDS011;4604;48.616;9.548;2023-03-07T09:48:11;10.53;;;5.80;;
9138;SDS011;4604;48.616;9.548;2023-03-07T09:50:49;9.00;;;5.27;;
9138;SDS011;4604;48.616;9.548;2023-03-07T09:53:21;10.17;;;5.27;;
9138;SDS011;4604;48.616;9.548;2023-03-07T09:55:54;7.33;;;4.57;;
9138;SDS011;4604;48.616;9.548;2023-03-07T09:58:24;10.17;;;4.73;;
9138;SDS011;4604;48.616;9.548;2023-03-07T10:00:54;7.00;;;4.70;;
9138;SDS011;4604;48.616;9.548;2023-03-07T10:03:26;7.77;;;4.57;;
9138;SDS011;4604;48.616;9.548;2023-03-07T10:06:01;8.83;;;4.87;;
9138;SDS011;4604;48.616;9.548;2023-03-07T10:08:32;10.50;;;4.93;;
9138;SDS011;4604;48.616;9.548;2023-03-07T10:11:01;8.40;;;4.83;;
9138;SDS011;4604;48.616;9.548;2023-03-07T10:13:43;11.37;;;5.63;;
9138;SDS011;4604;48.616;9.548;2023-03-07T10:16:25;9.20;;;5.30;;
9138;SDS011;4604;48.616;9.548;2023-03-07T10:19:01;8.83;;;4.90;;
9138;SDS011;4604;48.616;9.548;2023-03-07T10:21:36;8.53;;;4.73;;
9138;SDS011;4604;48.616;9.548;2023-03-07T10:27:08;9.47;;;4.80;;
9138;SDS011;4604;48.616;9.548;2023-03-07T10:29:38;8.23;;;4.77;;
9138;SDS011;4604;48.616;9.548;2023-03-07T10:32:15;10.27;;;5.40;;
9138;SDS011;4604;48.616;9.548;2023-03-07T10:34:50;8.23;;;4.50;;
9138;SDS011;4604;48.616;9.548;2023-03-07T10:37:21;8.17;;;4.60;;
9138;SDS011;4604;48.616;9.548;2023-03-07T10:39:54;9.93;;;4.70;;
9138;SDS011;4604;48.616;9.548;2023-03-07T10:42:22;6.90;;;4.40;;
9138;SDS011;4604;48.616;9.548;2023-03-07T10:44:50;7.17;;;4.60;;
9138;SDS011;4604;48.616;9.548;2023-03-07T10:47:19;9.70;;;5.40;;
9138;SDS011;4604;48.616;9.548;2023-03-07T10:49:49;9.33;;;5.60;;
9138;SDS011;4604;48.616;9.548;2023-03-07T10:52:23;9.27;;;4.80;;
9138;SDS011;4604;48.616;9.548;2023-03-07T10:54:54;20.30;;;4.90;;
9138;SDS011;4604;48.616;9.548;2023-03-07T10:57:37;8.83;;;4.83;;
9138;SDS011;4604;48.616;9.548;2023-03-07T11:00:11;7.87;;;4.80;;
9138;SDS011;4604;48.616;9.548;2023-03-07T11:02:44;9.87;;;5.03;;
9138;SDS011;4604;48.616;9.548;2023-03-07T11:05:18;8.10;;;4.70;;
9138;SDS011;4604;48.616;9.548;2023-03-07T11:07:53;9.93;;;4.97;;
9138;SDS011;4604;48.616;9.548;2023-03-07T11:10:23;7.90;;;4.77;;
9138;SDS011;4604;48.616;9.548;2023-03-07T11:12:52;9.13;;;5.10;;
9138;SDS011;4604;48.616;9.548;2023-03-07T11:15:21;9.57;;;5.17;;
9138;SDS011;4604;48.616;9.548;2023-03-07T11:17:51;7.53;;;4.90;;
9138;SDS011;4604;48.616;9.548;2023-03-07T11:20:19;10.67;;;5.03;;
9138;SDS011;4604;48.616;9.548;2023-03-07T11:22:47;7.73;;;4.77;;
9138;SDS011;4604;48.616;9.548;2023-03-07T11:25:15;10.63;;;5.03;;
9138;SDS011;4604;48.616;9.548;2023-03-07T11:27:48;9.43;;;4.83;;
9138;SDS011;4604;48.616;9.548;2023-03-07T11:30:18;7.80;;;4.37;;
9138;SDS011;4604;48.616;9.548;2023-03-07T11:32:52;7.50;;;4.83;;
9138;SDS011;4604;48.616;9.548;2023-03-07T11:35:26;8.87;;;4.67;;
9138;SDS011;4604;48.616;9.548;2023-03-07T11:38:05;9.37;;;4.60;;
9138;SDS011;4604;48.616;9.548;2023-03-07T11:40:38;10.93;;;5.20;;
9138;SDS011;4604;48.616;9.548;2023-03-07T11:43:13;10.63;;;5.53;;
9138;SDS011;4604;48.616;9.548;2023-03-07T11:45:47;10.10;;;4.90;;
9138;SDS011;4604;48.616;9.548;2023-03-07T11:48:32;11.47;;;5.57;;
9138;SDS011;4604;48.616;9.548;2023-03-07T11:51:14;8.03;;;5.00;;
9138;SDS011;4604;48.616;9.548;2023-03-07T11:53:58;10.53;;;5.00;;
9138;SDS011;4604;48.616;9.548;2023-03-07T11:56:32;8.07;;;4.57;;
9138;SDS011;4604;48.616;9.548;2023-03-07T11:59:15;9.57;;;5.93;;
9138;SDS011;4604;48.616;9.548;2023-03-07T12:02:00;11.13;;;5.50;;
9138;SDS011;4604;48.616;9.548;2023-03-07T12:07:39;12.33;;;5.77;;
9138;SDS011;4604;48.616;9.548;2023-03-07T12:10:19;11.07;;;5.87;;
9138;SDS011;4604;48.616;9.548;2023-03-07T12:13:03;9.90;;;5.60;;
9138;SDS011;4604;48.616;9.548;2023-03-07T12:15:38;10.73;;;6.03;;
9138;SDS011;4604;48.616;9.548;2023-03-07T12:18:23;10.43;;;5.37;;
9138;SDS011;4604;48.616;9.548;2023-03-07T12:21:07;12.03;;;6.13;;
9138;SDS011;4604;48.616;9.548;2023-03-07T12:23:50;10.33;;;6.30;;
9138;SDS011;4604;48.616;9.548;2023-03-07T12:26:21;10.00;;;6.17;;
9138;SDS011;4604;48.616;9.548;2023-03-07T12:28:53;9.63;;;5.77;;
9138;SDS011;4604;48.616;9.548;2023-03-07T12:31:25;10.97;;;6.00;;
9138;SDS011;4604;48.616;9.548;2023-03-07T12:33:57;9.77;;;5.50;;
9138;SDS011;4604;48.616;9.548;2023-03-07T12:36:29;8.30;;;5.53;;
9138;SDS011;4604;48.616;9.548;2023-03-07T12:39:02;10.70;;;6.37;;
9138;SDS011;4604;48.616;9.548;2023-03-07T12:41:50;10.17;;;5.80;;
9138;SDS011;4604;48.616;9.548;2023-03-07T12:44:28;12.03;;;6.23;;
9138;SDS011;4604;48.616;9.548;2023-03-07T12:46:59;9.67;;;5.60;;
9138;SDS011;4604;48.616;9.548;2023-03-07T12:49:31;9.93;;;6.10;;
9138;SDS011;4604;48.616;9.548;2023-03-07T12:52:05;9.67;;;6.10;;
9138;SDS011;4604;48.616;9.548;2023-03-07T12:54:43;12.23;;;6.30;;
9138;SDS011;4604;48.616;9.548;2023-03-07T12:57:19;9.83;;;5.90;;
9138;SDS011;4604;48.616;9.548;2023-03-07T12:59:50;8.30;;;5.40;;
9138;SDS011;4604;48.616;9.548;2023-03-07T13:02:23;11.70;;;6.70;;
9138;SDS011;4604;48.616;9.548;2023-03-07T13:04:53;9.23;;;5.63;;
9138;SDS011;4604;48.616;9.548;2023-03-07T13:07:23;10.27;;;6.13;;
9138;SDS011;4604;48.616;9.548;2023-03-07T13:09:53;11.87;;;6.00;;
9138;SDS011;4604;48.616;9.548;2023-03-07T13:12:28;11.03;;;5.87;;
9138;SDS011;4604;48.616;9.548;2023-03-07T13:14:56;11.83;;;6.27;;
9138;SDS011;4604;48.616;9.548;2023-03-07T13:20:41;11.93;;;6.10;;
9138;SDS011;4604;48.616;9.548;2023-03-07T13:23:10;8.67;;;5.57;;
9138;SDS011;4604;48.616;9.548;2023-03-07T13:25:55;11.13;;;5.87;;
9138;SDS011;4604;48.616;9.548;2023-03-07T13:28:33;9.13;;;4.87;;
9138;SDS011;4604;48.616;9.548;2023-03-07T13:40:23;6.13;;;4.23;;
9138;SDS011;4604;48.616;9.548;2023-03-07T13:42:56;5.77;;;4.13;;
9138;SDS011;4604;48.616;9.548;2023-03-07T13:48:12;6.40;;;3.87;;
9138;SDS011;4604;48.616;9.548;2023-03-07T13:51:17;9.50;;;5.53;;
9138;SDS011;4604;48.616;9.548;2023-03-07T13:53:45;7.97;;;4.37;;
9138;SDS011;4604;48.616;9.548;2023-03-07T13:56:17;8.10;;;4.10;;
9138;SDS011;4604;48.616;9.548;2023-03-07T13:58:52;5.10;;;3.70;;
9138;SDS011;4604;48.616;9.548;2023-03-07T14:01:22;6.23;;;3.87;;
9138;SDS011;4604;48.616;9.548;2023-03-07T14:03:53;6.73;;;3.90;;
9138;SDS011;4604;48.616;9.548;2023-03-07T14:06:25;7.23;;;4.10;;
9138;SDS011;4604;48.616;9.548;2023-03-07T14:08:57;7.60;;;4.20;;
9138;SDS011;4604;48.616;9.548;2023-03-07T14:11:27;6.97;;;3.97;;
9138;SDS011;4604;48.616;9.548;2023-03-07T14:14:05;6.43;;;3.97;;
9138;SDS011;4604;48.616;9.548;2023-03-07T14:16:56;9.40;;;4.43;;
9138;SDS011;4604;48.616;9.548;2023-03-07T14:19:46;7.50;;;4.27;;
9138;SDS011;4604;48.616;9.548;2023-03-07T14:22:22;6.57;;;3.77;;
9138;SDS011;4604;48.616;9.548;2023-03-07T14:25:06;8.50;;;4.50;;
9138;SDS011;4604;48.616;9.548;2023-03-07T14:27:49;7.30;;;3.97;;
9138;SDS011;4604;48.616;9.548;2023-03-07T14:30:22;9.03;;;4.27;;
9138;SDS011;4604;48.616;9.548;2023-03-07T14:32:50;6.27;;;4.03;;
9138;SDS011;4604;48.616;9.548;2023-03-07T14:35:33;5.37;;;3.70;;
9138;SDS011;4604;48.616;9.548;2023-03-07T14:38:04;6.07;;;3.77;;
9138;SDS011;4604;48.616;9.548;2023-03-07T14:40:35;6.07;;;3.73;;
9138;SDS011;4604;48.616;9.548;2023-03-07T14:43:23;5.50;;;3.50;;
9138;SDS011;4604;48.616;9.548;2023-03-07T14:46:02;7.73;;;4.40;;
9138;SDS011;4604;48.616;9.548;2023-03-07T14:48:38;6.00;;;4.23;;
9138;SDS011;4604;48.616;9.548;2023-03-07T14:51:22;7.33;;;4.27;;
9138;SDS011;4604;48.616;9.548;2023-03-07T14:53:52;7.07;;;4.27;;
9138;SDS011;4604;48.616;9.548;2023-03-07T14:56:20;6.13;;;4.10;;
9138;SDS011;4604;48.616;9.548;2023-03-07T14:58:52;6.97;;;4.10;;
9138;SDS011;4604;48.616;9.548;2023-03-07T15:01:26;6.93;;;4.00;;
9138;SDS011;4604;48.616;9.548;2023-03-07T15:03:55;8.60;;;4.60;;
9138;SDS011;4604;48.616;9.548;2023-03-07T15:06:23;12.00;;;5.57;;
9138;SDS011;4604;48.616;9.548;2023-03-07T15:08:51;9.07;;;4.70;;
9138;SDS011;4604;48.616;9.548;2023-03-07T15:11:23;15.13;;;8.27;;
9138;SDS011;4604;48.616;9.548;2023-03-07T15:13:57;11.57;;;5.77;;
9138;SDS011;4604;48.616;9.548;2023-03-07T15:16:30;8.43;;;4.40;;
9138;SDS011;4604;48.616;9.548;2023-03-07T15:19:02;10.13;;;4.97;;
9138;SDS011;4604;48.616;9.548;2023-03-07T15:21:36;7.30;;;4.40;;
9138;SDS011;4604;48.616;9.548;2023-03-07T15:24:11;8.20;;;4.13;;
9138;SDS011;4604;48.616;9.548;2023-03-07T15:26:45;10.17;;;5.00;;
9138;SDS011;4604;48.616;9.548;2023-03-07T15:29:14;7.37;;;4.10;;
9138;SDS011;4604;48.616;9.548;2023-03-07T15:31:49;8.63;;;4.53;;
9138;SDS011;4604;48.616;9.548;2023-03-07T15:34:20;7.87;;;4.17;;
9138;SDS011;4604;48.616;9.548;2023-03-07T15:36:50;6.40;;;4.13;;
9138;SDS011;4604;48.616;9.548;2023-03-07T15:39:25;7.97;;;4.77;;
9138;SDS011;4604;48.616;9.548;2023-03-07T15:41:57;8.27;;;4.73;;
9138;SDS011;4604;48.616;9.548;2023-03-07T15:44:24;8.47;;;4.27;;
9138;SDS011;4604;48.616;9.548;2023-03-07T15:46:53;9.63;;;4.30;;
9138;SDS011;4604;48.616;9.548;2023-03-07T15:49:23;7.90;;;4.30;;